METAR Data
IDs: Format: Raw Decoded Include TAF

Data at: 1548 UTC 18 Aug 2019

PABR 181453Z 32009KT 10SM SCT010 06/04 A3057 RMK AO2 SLP353 T00610039 56012
PABR 181438Z 31011KT 10SM BKN010 06/04 A3057 RMK AO2 T00610039
PABR 181353Z 31012KT 10SM SCT009 06/04 A3058 RMK AO2 SLP355 T00610039
PABR 181253Z AUTO 29013KT 10SM SCT008 07/04 A3060 RMK AO2 SLP361 T00670039 TSNO
PABR 181245Z AUTO 30011KT 10SM SCT007 07/04 A3060 RMK AO2 T00670044 TSNO
PABR 181238Z AUTO 30012KT 10SM BKN007 07/04 A3060 RMK AO2 T00670044 TSNO
PABR 181153Z AUTO 29012KT 10SM FEW008 07/04 A3061 RMK AO2 SLP364 T00670044 10072 20067 58015 TSNO
PABR 181137Z AUTO 29013KT 10SM BKN008 07/04 A3061 RMK AO2 T00670044 TSNO
PABR 181053Z AUTO 30012KT 10SM FEW008 07/04 A3062 RMK AO2 SLP370 T00670044 TSNO
PABR 181024Z AUTO 29012KT 10SM FEW009 07/04 A3063 RMK AO2 T00670044 TSNO
PABR 181016Z AUTO 29010KT 10SM SCT010 07/04 A3063 RMK AO2 T00670044 TSNO
PABR 181000Z AUTO 29013KT 10SM BKN010 07/04 A3064 RMK AO2 T00670044 TSNO
PABR 180953Z AUTO 29011KT 10SM BKN009 07/04 A3064 RMK AO2 SLP376 T00670044 TSNO
PABR 180914Z AUTO 30012KT 10SM FEW007 07/04 A3065 RMK AO2 T00670044 TSNO
PABR 180853Z AUTO 29010KT 10SM CLR 07/04 A3065 RMK AO2 SLP379 T00670044 400830044 57010 TSNO
PABR 180753Z AUTO 29013KT 10SM CLR 07/04 A3066 RMK AO2 SLP384 T00720044 TSNO
PABR 180653Z AUTO 30010KT 10SM CLR 07/04 A3067 RMK AO2 SLP386 T00720039 TSNO
PABR 180553Z 31010KT 10SM CLR 08/03 A3068 RMK AO2 SLP390 T00780028 10083 20072 56012
PABR 180453Z COR 31010KT 10SM BKN049 08/03 A3069 RMK AO2 SLP394 T00780028
PABR 180353Z 31011KT 10SM SCT055 07/03 A3070 RMK AO2 SLP397 T00720033
PABR 180253Z 31012KT 10SM BKN049 OVC060 08/04 A3072 RMK AO2 SLP402 T00780039 58006
PABR 180153Z 31013KT 10SM BKN050 OVC065 08/04 A3073 RMK AO2 SLP406 T00780039
PABR 180053Z 31012KT 10SM OVC065 08/03 A3073 RMK AO2 SLP407 T00780033
PABR 172353Z 32012KT 10SM SCT075 BKN100 08/03 A3074 RMK AO2 SLP409 T00780028 10083 20067 56005
PABR 172253Z 31013KT 10SM FEW080 OVC095 07/02 A3074 RMK AO2 SLP409 T00720022
PABR 172153Z 30012KT 10SM OVC080 07/02 A3075 RMK AO2 SLP412 T00720022
PABR 172053Z 32011KT 10SM BKN075 BKN100 OVC120 07/02 A3075 RMK AO2 SLP414 T00720022 50003
PABR 171953Z 31012KT 10SM OVC080 07/02 A3075 RMK AO2 SLP414 T00670022
PABR 171853Z 31011KT 10SM BKN070 BKN110 07/02 A3075 RMK AO2 SLP413 T00670022
PABR 171753Z 31012KT 10SM FEW070 FEW085 SCT120 07/03 A3074 RMK AO2 SLP411 T00670028 10067 20056 51002
PABR 171653Z 32010KT 10SM OVC120 07/03 A3074 RMK AO2 SLP410 T00670028
PABR 171553Z 32011KT 10SM OVC120 07/04 A3074 RMK AO2 SLP411 T00670039
PABR 171453Z 31009KT 10SM OVC120 07/03 A3074 RMK AO2 SLP409 T00670028 51006
PABR 171353Z AUTO 31010KT 10SM SCT011 OVC120 06/03 A3073 RMK AO2 SLP408 T00610033 TSNO
PABR 171337Z AUTO 31010KT 10SM SCT011 OVC120 06/03 A3073 RMK AO2 T00610033 TSNO
PABR 171301Z AUTO 31011KT 10SM BKN012 06/03 A3073 RMK AO2 T00610033 TSNO
PABR 171253Z AUTO 30010KT 10SM SCT012 06/03 A3073 RMK AO2 SLP406 T00560028 TSNO
PABR 171210Z AUTO 32006KT 10SM SCT011 06/03 A3072 RMK AO2 T00560028 TSNO
PABR 171153Z AUTO 32006KT 10SM BKN011 06/03 A3072 RMK AO2 SLP402 T00560028 10056 20039 51015 TSNO
PABR 171124Z AUTO 34008KT 10SM OVC010 06/03 A3072 RMK AO2 T00560028 TSNO
PABR 171053Z AUTO 35008KT 10SM OVC008 05/03 A3071 RMK AO2 SLP399 T00500033 TSNO
PABR 170953Z AUTO 35008KT 10SM OVC008 04/02 A3070 RMK AO2 SLP395 T00440022 TSNO
PABR 170853Z AUTO 36009KT 10SM OVC009 04/02 A3067 RMK AO2 SLP388 T00440017 400670039 53015 TSNO
PABR 170844Z AUTO 36010KT 10SM OVC009 04/02 A3067 RMK AO2 T00440017 TSNO
PABR 170753Z AUTO 02012KT 10SM OVC010 04/02 A3065 RMK AO2 SLP379 T00440017 TSNO
PABR 170748Z AUTO 02012KT 10SM OVC010 04/02 A3065 RMK AO2 TSNO
PABR 170653Z AUTO 35013KT 10SM OVC009 04/02 A3063 RMK AO2 SLP373 T00440017 TSNO
PABR 170642Z AUTO 36012KT 10SM OVC009 04/02 A3063 RMK AO2 T00440017 TSNO
PABR 170553Z 36012G21KT 10SM OVC010 04/02 A3061 RMK AO2 SLP366 T00440017 10050 20044 53027
PABR 170453Z 36015KT 10SM OVC011 05/02 A3058 RMK AO2 SLP355 T00500017
PABR 170353Z 01014KT 10SM OVC011 05/02 A3055 RMK AO2 SLP345 T00500017